createdAt,value
2024-02-18T00:00:56.731Z,22.66
2024-02-18T00:03:25.202Z,22.67
2024-02-18T00:05:53.157Z,22.67
2024-02-18T00:08:21.004Z,22.67
2024-02-18T00:10:48.931Z,22.67
2024-02-18T00:13:18.251Z,22.67
2024-02-18T00:19:18.222Z,22.66
2024-02-18T00:21:46.202Z,22.66
2024-02-18T00:24:15.208Z,22.68
2024-02-18T00:26:53.975Z,22.66
2024-02-18T00:29:27.326Z,22.67
2024-02-18T00:31:55.151Z,22.68
2024-02-18T00:34:24.372Z,22.67
2024-02-18T00:36:53.683Z,22.68
2024-02-18T00:39:21.803Z,22.67
2024-02-18T00:41:49.788Z,22.67
2024-02-18T00:44:18.451Z,22.67
2024-02-18T00:46:57.176Z,22.66
2024-02-18T00:49:31.552Z,22.66
2024-02-18T00:51:59.472Z,22.66
2024-02-18T00:54:27.332Z,22.65
2024-02-18T00:56:55.163Z,22.65
2024-02-18T01:06:28.058Z,22.64
2024-02-18T01:08:55.949Z,22.64
2024-02-18T01:11:23.895Z,22.64
2024-02-18T01:13:51.822Z,22.64
2024-02-18T01:16:19.664Z,22.63
2024-02-18T01:18:47.699Z,22.64
2024-02-18T01:21:17.686Z,22.61
2024-02-18T01:23:47.153Z,22.63
2024-02-18T01:26:15.010Z,22.62
2024-02-18T01:28:43.169Z,22.62
2024-02-18T01:38:04.902Z,22.60
2024-02-18T01:40:34.388Z,22.61
2024-02-18T01:43:02.303Z,22.60
2024-02-18T01:45:30.191Z,22.61
2024-02-18T01:47:58.035Z,22.63
2024-02-18T01:50:26.051Z,22.62
2024-02-18T01:52:53.986Z,22.61
2024-02-18T01:55:22.039Z,22.61
2024-02-18T01:57:51.315Z,22.60
2024-02-18T02:04:30.671Z,22.59
2024-02-18T02:06:58.644Z,22.60
2024-02-18T02:09:26.608Z,22.59
2024-02-18T02:11:54.555Z,22.59
2024-02-18T02:14:29.672Z,22.59
2024-02-18T02:16:57.611Z,22.59
2024-02-18T02:19:25.498Z,22.58
2024-02-18T02:21:53.387Z,22.58
2024-02-18T02:24:21.317Z,22.58
2024-02-18T02:26:50.205Z,22.60
2024-02-18T02:32:51.246Z,22.58
2024-02-18T02:35:19.508Z,22.57
2024-02-18T02:37:47.357Z,22.57
2024-02-18T02:40:15.549Z,22.57
2024-02-18T02:42:43.438Z,22.57
2024-02-18T02:45:31.941Z,22.57
2024-02-18T02:48:01.265Z,22.58
2024-02-18T02:50:29.152Z,22.57
2024-02-18T02:52:56.968Z,22.58
2024-02-18T02:55:24.855Z,22.56
2024-02-18T02:57:54.334Z,22.58
2024-02-18T03:07:26.758Z,22.56
2024-02-18T03:09:54.652Z,22.56
2024-02-18T03:12:22.613Z,22.56
2024-02-18T03:25:27.967Z,22.55
2024-02-18T03:27:56.102Z,22.55
2024-02-18T03:41:28.165Z,22.54
2024-02-18T03:43:57.473Z,22.54
2024-02-18T03:49:47.309Z,22.54
2024-02-18T03:52:15.165Z,22.55
2024-02-18T03:54:43.052Z,22.54
2024-02-18T03:57:10.868Z,22.54
2024-02-18T04:10:18.035Z,22.53
2024-02-18T04:12:48.051Z,22.53
2024-02-18T04:15:35.612Z,22.53
2024-02-18T04:18:03.534Z,22.53
2024-02-18T04:20:31.420Z,22.52
2024-02-18T04:22:59.220Z,22.52
2024-02-18T04:25:28.451Z,22.53
2024-02-18T04:27:56.306Z,22.52
2024-02-18T04:30:24.176Z,22.53
2024-02-18T04:32:52.131Z,22.52
2024-02-18T04:35:19.966Z,22.52
2024-02-18T04:37:47.782Z,22.51
2024-02-18T04:40:15.568Z,22.51
2024-02-18T04:42:44.811Z,22.51
2024-02-18T04:52:06.912Z,22.50
2024-02-18T04:54:37.908Z,22.51
2024-02-18T04:57:07.849Z,22.50
2024-02-18T04:59:37.280Z,22.50
2024-02-18T05:05:26.915Z,22.49
2024-02-18T05:07:55.013Z,22.49
2024-02-18T05:10:22.809Z,22.49
2024-02-18T05:12:50.652Z,22.49
2024-02-18T05:22:13.671Z,22.48
2024-02-18T05:24:42.561Z,22.48
2024-02-18T05:27:10.419Z,22.48
2024-02-18T05:29:38.204Z,22.48
2024-02-18T05:32:43.064Z,22.48
2024-02-18T05:35:12.289Z,22.48
2024-02-18T05:37:41.988Z,22.46
2024-02-18T05:40:10.405Z,22.48
2024-02-18T05:42:38.286Z,22.47
2024-02-18T05:59:14.945Z,22.46
2024-02-18T06:13:00.816Z,22.46
2024-02-18T06:15:30.126Z,22.45
2024-02-18T06:17:59.359Z,22.46
2024-02-18T06:20:27.559Z,22.45
2024-02-18T06:22:55.353Z,22.46
2024-02-18T06:25:23.196Z,22.45
2024-02-18T06:27:51.547Z,22.45
2024-02-18T06:44:27.498Z,22.44
2024-02-18T06:50:59.803Z,22.44
2024-02-18T06:53:27.623Z,22.44
2024-02-18T06:55:55.618Z,22.45
2024-02-18T06:58:23.425Z,22.45
2024-02-18T07:07:56.518Z,22.45
2024-02-18T07:10:24.340Z,22.45
2024-02-18T07:12:52.275Z,22.44
2024-02-18T07:15:20.292Z,22.43
2024-02-18T07:46:31.959Z,22.46
2024-02-18T07:49:01.322Z,22.50
2024-02-18T07:51:29.921Z,22.53
2024-02-18T07:53:57.775Z,22.54
2024-02-18T07:56:25.586Z,22.56
2024-02-18T07:58:53.405Z,22.56
2024-02-18T08:01:46.975Z,22.56
2024-02-18T08:04:16.365Z,22.57
2024-02-18T08:06:45.351Z,22.56
2024-02-18T08:09:16.450Z,22.56
2024-02-18T08:11:44.823Z,22.56
2024-02-18T08:14:12.648Z,22.56
2024-02-18T08:20:03.608Z,22.57
2024-02-18T08:22:31.513Z,22.58
2024-02-18T08:24:59.739Z,22.61
2024-02-18T08:27:28.901Z,22.64
2024-02-18T08:29:56.847Z,22.63
2024-02-18T08:36:34.890Z,22.61
2024-02-18T08:39:04.386Z,22.63
2024-02-18T08:41:32.348Z,22.64
2024-02-18T08:44:00.174Z,22.65
2024-02-18T08:53:42.538Z,22.69
2024-02-18T08:56:11.976Z,22.70
2024-02-18T08:58:39.785Z,22.70
2024-02-18T09:01:07.673Z,22.70
2024-02-18T09:03:35.593Z,22.69
2024-02-18T09:06:03.477Z,22.71
2024-02-18T09:08:31.324Z,22.75
2024-02-18T09:10:59.207Z,22.78
2024-02-18T09:13:28.465Z,22.80
2024-02-18T09:15:57.458Z,22.80
2024-02-18T09:32:51.343Z,22.76
2024-02-18T09:35:20.986Z,22.75
2024-02-18T09:37:48.903Z,22.76
2024-02-18T09:40:16.763Z,22.77
2024-02-18T09:42:44.627Z,22.77
2024-02-18T09:45:15.333Z,22.76
2024-02-18T09:47:43.665Z,22.78
2024-02-18T09:50:12.831Z,22.78
2024-02-18T09:52:44.408Z,22.78
2024-02-18T09:55:13.188Z,22.78
2024-02-18T09:57:41.255Z,22.79
2024-02-18T10:00:10.606Z,22.79
2024-02-18T10:02:41.780Z,22.80
2024-02-18T10:05:12.047Z,22.80
2024-02-18T10:07:40.049Z,22.80
2024-02-18T10:10:09.985Z,22.81
2024-02-18T10:12:37.960Z,22.82
2024-02-18T10:15:06.433Z,22.82
2024-02-18T10:28:11.657Z,22.87
2024-02-18T10:30:40.165Z,22.87
2024-02-18T10:33:46.016Z,22.87
2024-02-18T10:36:14.547Z,22.88
2024-02-18T10:38:44.585Z,22.88
2024-02-18T10:41:14.178Z,22.91
2024-02-18T10:43:45.685Z,22.91
2024-02-18T10:46:13.603Z,22.91
2024-02-18T10:52:47.763Z,22.94
2024-02-18T10:55:19.423Z,22.96
2024-02-18T10:57:49.856Z,22.95
2024-02-18T11:00:20.347Z,22.97
2024-02-18T11:02:50.332Z,22.99
2024-02-18T11:05:19.743Z,23.00
2024-02-18T11:07:47.870Z,23.03
2024-02-18T11:10:15.813Z,23.02
2024-02-18T11:12:43.677Z,23.06
2024-02-18T11:15:12.506Z,23.09
2024-02-18T11:21:14.691Z,23.11
2024-02-18T11:23:47.651Z,23.13
2024-02-18T11:26:15.449Z,23.15
2024-02-18T11:28:45.062Z,23.18
2024-02-18T11:31:20.191Z,23.20
2024-02-18T11:34:06.569Z,23.20
2024-02-18T11:36:35.859Z,23.19
2024-02-18T11:39:04.926Z,23.22
2024-02-18T11:41:33.845Z,23.20
2024-02-18T11:44:02.021Z,23.22
2024-02-18T11:46:30.090Z,23.19
2024-02-18T11:56:14.328Z,23.28
2024-02-18T11:58:42.211Z,23.26
2024-02-18T12:01:10.088Z,23.26
2024-02-18T12:03:37.927Z,23.29
2024-02-18T12:06:06.262Z,23.25
2024-02-18T12:08:34.285Z,23.24
2024-02-18T12:11:02.444Z,23.23
2024-02-18T12:13:31.687Z,23.21
2024-02-18T12:15:59.607Z,23.19
2024-02-18T12:18:28.597Z,23.19
2024-02-18T12:20:56.538Z,23.20
2024-02-18T12:23:24.443Z,23.21
2024-02-18T12:25:52.357Z,23.21
2024-02-18T12:28:20.467Z,23.24
2024-02-18T12:30:51.500Z,23.23
2024-02-18T12:40:12.887Z,23.26
2024-02-18T12:42:52.092Z,23.27
2024-02-18T12:48:32.795Z,23.24
2024-02-18T12:51:11.364Z,23.22
2024-02-18T12:53:39.654Z,23.21
2024-02-18T12:56:07.614Z,23.19
2024-02-18T12:58:36.850Z,23.17
2024-02-18T13:01:05.248Z,23.16
2024-02-18T13:03:42.351Z,23.14
2024-02-18T13:06:18.169Z,23.13
2024-02-18T13:08:46.055Z,23.14
2024-02-18T13:11:17.503Z,23.16
2024-02-18T13:13:45.678Z,23.18
2024-02-18T13:16:13.514Z,23.20
2024-02-18T13:18:44.024Z,23.20
2024-02-18T13:21:13.554Z,23.21
2024-02-18T13:23:42.626Z,23.19
2024-02-18T13:26:10.571Z,23.17
2024-02-18T13:28:38.489Z,23.17
2024-02-18T13:31:06.637Z,23.18
2024-02-18T13:33:35.127Z,23.17
2024-02-18T13:36:03.595Z,23.20
2024-02-18T13:38:32.796Z,23.23
2024-02-18T13:41:00.590Z,23.25
2024-02-18T13:43:28.814Z,23.26
2024-02-18T13:45:56.745Z,23.29
2024-02-18T13:48:24.753Z,23.31
2024-02-18T13:50:52.636Z,23.30
2024-02-18T13:53:20.451Z,23.32
2024-02-18T13:55:49.743Z,23.33
2024-02-18T13:58:17.603Z,23.31
2024-02-18T14:00:45.548Z,23.31
2024-02-18T14:03:13.522Z,23.33
2024-02-18T14:05:42.227Z,23.34
2024-02-18T14:08:10.063Z,23.33
2024-02-18T14:10:37.861Z,23.33
2024-02-18T14:13:07.467Z,23.33
2024-02-18T14:15:36.373Z,23.32
2024-02-18T14:18:04.296Z,23.33
2024-02-18T14:20:32.165Z,23.34
2024-02-18T14:23:00.369Z,23.35
2024-02-18T14:25:28.180Z,23.34
2024-02-18T14:27:55.948Z,23.33
2024-02-18T14:30:25.166Z,23.31
2024-02-18T14:32:52.982Z,23.29
2024-02-18T14:35:21.228Z,23.30
2024-02-18T14:37:49.988Z,23.31
2024-02-18T14:40:17.990Z,23.28
2024-02-18T14:42:45.961Z,23.29
2024-02-18T14:45:14.830Z,23.29
2024-02-18T14:48:47.408Z,23.29
2024-02-18T14:51:16.742Z,23.28
2024-02-18T14:53:50.416Z,23.27
2024-02-18T14:56:21.355Z,23.25
2024-02-18T14:58:50.153Z,23.22
2024-02-18T15:01:18.644Z,23.19
2024-02-18T15:03:46.639Z,23.19
2024-02-18T15:06:14.971Z,23.19
2024-02-18T15:08:44.334Z,23.19
2024-02-18T15:11:12.205Z,23.18
2024-02-18T15:13:40.030Z,23.19
2024-02-18T15:16:08.321Z,23.18
2024-02-18T15:19:13.564Z,23.18
2024-02-18T15:21:41.655Z,23.18
2024-02-18T15:24:10.981Z,23.18
2024-02-18T15:26:42.569Z,23.16
2024-02-18T15:29:12.342Z,23.16
2024-02-18T15:31:40.232Z,23.16
2024-02-18T15:34:09.444Z,23.15
2024-02-18T15:36:38.722Z,23.13
2024-02-18T15:39:07.050Z,23.13
2024-02-18T15:41:36.272Z,23.11
2024-02-18T15:44:06.129Z,23.09
2024-02-18T15:46:33.943Z,23.07
2024-02-18T15:49:01.886Z,23.03
2024-02-18T15:51:30.097Z,23.01
2024-02-18T15:53:57.960Z,23.00
2024-02-18T15:56:25.840Z,22.98
2024-02-18T15:58:55.083Z,22.97
2024-02-18T16:01:22.969Z,22.96
2024-02-18T16:03:50.843Z,22.94
2024-02-18T16:06:19.470Z,22.92
2024-02-18T16:08:47.300Z,22.90
2024-02-18T16:11:16.707Z,22.90
2024-02-18T16:13:45.145Z,22.90
2024-02-18T16:16:15.883Z,22.88
2024-02-18T16:19:02.820Z,22.87
2024-02-18T16:21:30.789Z,22.87
2024-02-18T16:24:01.667Z,22.86
2024-02-18T16:26:29.628Z,22.86
2024-02-18T16:28:57.560Z,22.86
2024-02-18T16:31:26.810Z,22.85
2024-02-18T16:33:54.713Z,22.85
2024-02-18T16:36:22.554Z,22.86
2024-02-18T16:38:50.490Z,22.85
2024-02-18T16:41:18.585Z,22.85
2024-02-18T16:43:46.439Z,22.86
2024-02-18T16:46:14.397Z,22.86
2024-02-18T16:48:43.864Z,22.86
2024-02-18T16:51:14.882Z,22.86
2024-02-18T16:53:44.271Z,22.85
2024-02-18T16:56:12.562Z,22.86
2024-02-18T16:58:40.346Z,22.84
2024-02-18T17:01:08.310Z,22.84
2024-02-18T17:03:36.369Z,22.84
2024-02-18T17:06:06.015Z,22.82
2024-02-18T17:08:33.817Z,22.82
2024-02-18T17:11:01.714Z,22.82
2024-02-18T17:13:29.558Z,22.82
2024-02-18T17:15:57.705Z,22.82
2024-02-18T17:18:26.170Z,22.81
2024-02-18T17:20:53.285Z,22.81
2024-02-18T17:23:22.461Z,22.79
2024-02-18T17:25:50.437Z,22.79
2024-02-18T17:28:18.267Z,22.79
2024-02-18T17:30:46.171Z,22.78
2024-02-18T17:33:14.176Z,22.78
2024-02-18T17:35:42.123Z,22.77
2024-02-18T17:38:09.942Z,22.78
2024-02-18T17:40:39.210Z,22.78
2024-02-18T17:43:07.082Z,22.78
2024-02-18T17:45:35.157Z,22.78
2024-02-18T17:48:40.550Z,22.78
2024-02-18T17:51:08.388Z,22.78
2024-02-18T17:53:36.227Z,22.78
2024-02-18T17:56:05.917Z,22.78
2024-02-18T17:58:33.816Z,22.77
2024-02-18T18:01:02.858Z,22.78
2024-02-18T18:03:31.358Z,22.77
2024-02-18T18:06:01.064Z,22.77
2024-02-18T18:08:29.091Z,22.77
2024-02-18T18:10:57.020Z,22.76
2024-02-18T18:13:26.364Z,22.75
2024-02-18T18:15:55.711Z,22.75
2024-02-18T18:18:23.693Z,22.74
2024-02-18T18:20:51.535Z,22.73
2024-02-18T18:23:19.437Z,22.74
2024-02-18T18:25:47.253Z,22.74
2024-02-18T18:28:15.730Z,22.73
2024-02-18T18:30:45.216Z,22.74
2024-02-18T18:33:13.102Z,22.74
2024-02-18T18:35:40.944Z,22.73
2024-02-18T18:38:09.001Z,22.74
2024-02-18T18:40:36.818Z,22.72
2024-02-18T18:43:05.530Z,22.73
2024-02-18T18:45:33.403Z,22.72
2024-02-18T18:48:02.769Z,22.71
2024-02-18T18:50:30.604Z,22.71
2024-02-18T18:53:00.420Z,22.71
2024-02-18T18:55:28.539Z,22.71
2024-02-18T18:57:59.838Z,22.71
2024-02-18T19:00:29.432Z,22.70
2024-02-18T19:02:57.392Z,22.71
2024-02-18T19:05:26.814Z,22.70
2024-02-18T19:07:54.764Z,22.69
2024-02-18T19:10:22.635Z,22.70
2024-02-18T19:12:50.526Z,22.69
2024-02-18T19:15:19.744Z,22.69
2024-02-18T19:17:49.000Z,22.70
2024-02-18T19:27:24.314Z,22.71
2024-02-18T19:29:52.198Z,22.70
2024-02-18T19:32:21.564Z,22.71
2024-02-18T19:34:49.534Z,22.72
2024-02-18T19:37:17.576Z,22.71
2024-02-18T19:39:46.224Z,22.72
2024-02-18T19:42:14.095Z,22.72
2024-02-18T19:44:43.638Z,22.72
2024-02-18T19:47:11.661Z,22.72
2024-02-18T19:56:33.318Z,22.74
2024-02-18T19:59:01.161Z,22.72
2024-02-18T20:01:30.510Z,22.71
2024-02-18T20:07:43.427Z,22.72
2024-02-18T20:10:11.640Z,22.70
2024-02-18T20:12:39.565Z,22.71
2024-02-18T20:15:07.784Z,22.70
2024-02-18T20:17:38.031Z,22.70
2024-02-18T20:34:14.781Z,22.68
2024-02-18T20:36:45.196Z,22.68
2024-02-18T20:39:13.123Z,22.68
2024-02-18T20:41:40.914Z,22.68
2024-02-18T20:44:08.943Z,22.68
2024-02-18T20:46:37.344Z,22.68
2024-02-18T21:00:02.344Z,22.68
2024-02-18T21:02:30.199Z,22.69
2024-02-18T21:08:30.727Z,22.69
2024-02-18T21:10:58.591Z,22.67
2024-02-18T21:13:29.642Z,22.67
2024-02-18T21:15:58.913Z,22.66
2024-02-18T21:18:27.810Z,22.66
2024-02-18T21:24:27.710Z,22.67
2024-02-18T21:26:55.594Z,22.65
2024-02-18T21:29:23.431Z,22.65
2024-02-18T21:31:52.690Z,22.63
2024-02-18T21:52:21.292Z,22.63
2024-02-18T21:54:50.643Z,22.61
2024-02-18T21:57:18.736Z,22.63
2024-02-18T21:59:46.571Z,22.63
2024-02-18T22:02:14.450Z,22.63
2024-02-18T22:05:00.694Z,22.63
2024-02-18T22:07:30.197Z,22.63
2024-02-18T22:09:58.142Z,22.63
2024-02-18T22:12:26.043Z,22.60
2024-02-18T22:14:53.983Z,22.61
2024-02-18T22:17:21.812Z,22.60
2024-02-18T22:20:08.328Z,22.60
2024-02-18T22:22:37.593Z,22.60
2024-02-18T22:25:07.507Z,22.60
2024-02-18T22:27:35.503Z,22.59
2024-02-18T22:30:05.888Z,22.59
2024-02-18T22:32:34.420Z,22.59
2024-02-18T22:52:33.183Z,22.56
2024-02-18T22:55:01.087Z,22.57
2024-02-18T22:57:28.938Z,22.56
2024-02-18T22:59:56.776Z,22.57
2024-02-18T23:02:24.614Z,22.57
2024-02-18T23:19:01.194Z,22.55
2024-02-18T23:25:43.636Z,22.56
2024-02-18T23:28:11.572Z,22.56
2024-02-18T23:30:39.488Z,22.56
2024-02-18T23:33:07.548Z,22.55
2024-02-18T23:42:30.550Z,22.54
2024-02-18T23:44:58.409Z,22.53
2024-02-18T23:47:26.366Z,22.52
2024-02-18T23:57:47.751Z,22.52
